Time;durP1;ratioP1;P1;durP2;ratioP2;P2;SDS_P1;SDS_P2;PMS_P1;PMS_P2;Temp;Humidity;BMP_temperature;BMP_pressure;BME280_temperature;BME280_humidity;BME280_pressure;Samples;Min_cycle;Max_cycle;Signal;HPM_P1;HPM_P2
2023/11/06 00:06:43;503916.00;1.68;868.57;17935.00;0.06;31.69;;;;;14.70;1.00;;;;;;2278047;61;1331;-89
2023/11/06 00:09:11;211853.00;0.71;366.32;13974.00;0.05;24.83;;;;;14.80;1.00;;;;;;2276498;61;1502;-89
2023/11/06 00:11:41;355620.00;1.19;613.52;50994.00;0.17;88.91;;;;;14.60;1.00;;;;;;2276460;61;1755;-90
2023/11/06 00:14:11;150611.00;0.50;260.86;0.00;0.00;0.62;;;;;14.50;1.00;;;;;;2276498;61;2001;-91
2023/11/06 00:16:38;64080.00;0.21;111.53;0.00;0.00;0.62;;;;;14.10;1.00;;;;;;2275947;61;1675;-89
2023/11/06 01:25:18;596114.00;1.99;1027.51;0.00;0.00;0.62;;;;;12.40;1.00;;;;;;2487176;56;3631;31
2023/11/06 02:45:59;701404.00;2.34;1209.67;335.00;0.00;1.20;;;;;11.40;1.00;;;;;;2516276;55;3636;31
2023/11/06 03:13:40;1195262.00;3.98;2081.66;127447.00;0.42;220.93;;;;;11.30;1.00;;;;;;2278092;61;1334;-87
2023/11/06 03:18:45;973494.00;3.24;1685.58;95595.00;0.32;165.97;;;;;11.50;1.00;;;;;;2278168;61;1319;-90
2023/11/06 03:21:16;610308.00;2.03;1052.02;88170.00;0.29;153.15;;;;;11.90;1.00;;;;;;2271957;61;1530;-90
2023/11/06 04:47:09;891504.00;2.97;1541.20;0.00;0.00;0.62;;;;;11.80;1.00;;;;;;2515223;55;3546;31
2023/11/06 05:07:25;594304.00;1.98;1024.39;0.00;0.00;0.62;;;;;11.80;1.00;;;;;;2270149;61;1051;-89
2023/11/06 05:56:08;686734.00;2.29;1184.24;0.00;0.00;0.62;;;;;12.30;1.00;;;;;;2279104;61;1875;-89
2023/11/06 06:21:19;902379.00;3.01;1560.30;85316.00;0.28;148.22;;;;;12.00;1.00;;;;;;2278410;61;1007;-90
2023/11/06 06:23:46;297751.00;0.99;514.05;0.00;0.00;0.62;;;;;12.00;1.00;;;;;;2268458;61;1315;-92
2023/11/06 06:26:18;179676.00;0.60;310.93;0.00;0.00;0.62;;;;;11.80;1.00;;;;;;2260463;61;905;-91
2023/11/06 07:09:15;1575209.00;5.25;2785.45;140510.00;0.47;243.45;;;;;14.90;1.00;;;;;;2522076;40;3490;31
2023/11/06 11:50:10;1848939.00;6.16;3318.62;134879.00;0.45;233.74;;;;;15.80;1.00;;;;;;2278747;61;994;-91
2023/11/06 13:04:20;660375.00;2.20;1138.59;0.00;0.00;0.62;;;;;16.20;1.00;;;;;;2477497;55;3569;31
2023/11/06 15:16:04;724311.00;2.41;1249.42;524.00;0.00;1.53;;;;;14.50;1.00;;;;;;2282930;61;1933;-92
2023/11/06 15:31:14;644745.00;2.15;1111.55;80473.00;0.27;139.85;;;;;16.00;1.00;;;;;;2277708;60;1185;-87
2023/11/06 15:33:45;298009.00;0.99;514.50;82261.00;0.27;142.94;;;;;16.10;1.00;;;;;;2276388;60;1394;-87
2023/11/06 15:36:12;321754.00;1.07;555.31;82037.00;0.27;142.56;;;;;16.00;1.00;;;;;;2296006;56;3761;-88
2023/11/06 15:38:39;231164.00;0.77;399.55;88406.00;0.29;153.56;;;;;15.80;1.00;;;;;;2280284;60;995;-87
2023/11/06 15:43:41;608765.00;2.03;1049.36;20158.00;0.07;35.54;;;;;15.80;1.00;;;;;;2278039;60;1550;-88
2023/11/06 15:46:08;273730.00;0.91;472.76;61973.00;0.21;107.89;;;;;15.70;1.00;;;;;;2276388;60;1107;-89
2023/11/06 15:48:39;73683.00;0.25;128.12;0.00;0.00;0.62;;;;;15.70;1.00;;;;;;2276141;60;1461;-87
2023/11/06 15:56:12;721639.00;2.41;1244.78;0.00;0.00;0.62;;;;;15.40;1.00;;;;;;1802614;56;3642;-87
2023/11/06 16:01:08;297891.00;0.99;514.29;0.00;0.00;0.62;;;;;15.40;1.00;;;;;;2278762;61;1359;-89
2023/11/06 16:03:37;107198.00;0.36;185.99;0.00;0.00;0.62;;;;;15.40;1.00;;;;;;2276113;60;1551;-88
2023/11/06 16:06:08;112424.00;0.37;195.01;0.00;0.00;0.62;;;;;15.30;1.00;;;;;;2275945;60;1293;-87
2023/11/06 16:11:13;469050.00;1.56;808.55;0.00;0.00;0.62;;;;;14.60;1.00;;;;;;2302059;55;3680;-88
2023/11/06 16:13:41;1348092.00;4.49;2360.39;130074.00;0.43;225.46;;;;;14.40;1.00;;;;;;2277937;60;1770;-88
2023/11/06 16:16:09;739466.00;2.46;1275.75;67529.00;0.23;117.49;;;;;14.60;1.00;;;;;;2276095;60;1994;-88
2023/11/06 16:18:37;931222.00;3.10;1611.02;101780.00;0.34;176.64;;;;;14.70;1.00;;;;;;2276062;60;995;-88
2023/11/06 16:21:07;735733.00;2.45;1269.26;4575.00;0.02;8.55;;;;;14.70;1.00;;;;;;2276077;60;1609;-88
2023/11/06 16:23:39;1156398.00;3.85;2011.58;167305.00;0.56;289.62;;;;;14.40;1.00;;;;;;2275949;60;1584;-87
2023/11/06 16:26:06;1048339.00;3.49;1818.28;83298.00;0.28;144.73;;;;;14.20;1.00;;;;;;2276047;60;1747;-87
2023/11/06 16:28:38;1067092.00;3.56;1851.67;146680.00;0.49;254.09;;;;;14.00;1.00;;;;;;2276049;60;1118;-88
2023/11/06 16:31:06;1449184.00;4.83;2547.86;153795.00;0.51;266.35;;;;;14.00;1.00;;;;;;2276127;60;1074;-88
2023/11/06 16:33:34;602701.00;2.01;1038.88;65220.00;0.22;113.50;;;;;13.80;1.00;;;;;;2276049;60;1275;-87
2023/11/06 16:36:03;481315.00;1.60;829.66;87795.00;0.29;152.50;;;;;13.60;1.00;;;;;;2275829;60;2006;-89
2023/11/06 16:38:31;529732.00;1.77;913.03;90976.00;0.30;157.99;;;;;13.50;1.00;;;;;;2270712;56;3705;-86
2023/11/06 16:40:58;422484.00;1.41;728.46;87760.00;0.29;152.44;;;;;13.30;1.00;;;;;;2259615;60;917;-88
2023/11/06 16:43:24;430237.00;1.43;741.79;83887.00;0.28;145.75;;;;;13.30;1.00;;;;;;2282410;56;3689;-88
2023/11/06 16:45:53;230831.00;0.77;398.98;27452.00;0.09;48.17;;;;;13.40;1.00;;;;;;2276037;61;1066;-88
2023/11/06 16:48:20;83149.00;0.28;144.48;0.00;0.00;0.62;;;;;13.40;1.00;;;;;;2275882;61;1014;-86
2023/11/06 16:50:48;69243.00;0.23;120.45;0.00;0.00;0.62;;;;;13.10;1.00;;;;;;2284284;55;4179;-85
2023/11/06 16:53:16;164683.00;0.55;285.11;0.00;0.00;0.62;;;;;13.00;1.00;;;;;;2261969;60;1441;-87
2023/11/06 16:55:47;154242.00;0.51;267.12;0.00;0.00;0.62;;;;;12.90;1.00;;;;;;2259381;60;2345;-85
2023/11/06 16:58:14;176964.00;0.59;306.26;0.00;0.00;0.62;;;;;13.00;1.00;;;;;;2271907;40;3573;-88
2023/11/06 17:00:43;353409.00;1.18;609.72;11683.00;0.04;20.86;;;;;12.80;1.00;;;;;;2279754;60;1612;-86
2023/11/06 17:03:10;0.00;0.00;0.62;0.00;0.00;0.62;;;;;12.80;1.00;;;;;;2278762;60;1698;-86
2023/11/06 17:05:41;149723.00;0.50;259.33;0.00;0.00;0.62;;;;;13.00;1.00;;;;;;2276574;61;1514;-87
2023/11/06 17:08:09;38817.00;0.13;67.84;0.00;0.00;0.62;;;;;13.00;1.00;;;;;;2276721;61;1529;-86
2023/11/06 17:10:39;179024.00;0.60;309.81;0.00;0.00;0.62;;;;;13.00;1.00;;;;;;2276602;61;1006;-86
2023/11/06 17:13:06;104411.00;0.35;181.19;14311.00;0.05;25.42;;;;;13.10;1.00;;;;;;2276527;61;1264;-86
2023/11/06 17:15:34;517705.00;1.73;892.31;0.00;0.00;0.62;;;;;13.10;1.00;;;;;;2276521;61;1997;-87
2023/11/06 17:18:02;27153.00;0.09;47.65;0.00;0.00;0.62;;;;;13.00;1.00;;;;;;2276650;61;1595;-86
2023/11/06 17:20:29;196022.00;0.65;339.08;0.00;0.00;0.62;;;;;13.00;1.00;;;;;;2276590;61;1067;-87
2023/11/06 17:22:56;165834.00;0.55;287.09;0.00;0.00;0.62;;;;;13.00;1.00;;;;;;2276477;61;1327;-86
2023/11/06 17:25:24;138624.00;0.46;240.20;0.00;0.00;0.62;;;;;12.90;1.00;;;;;;2276599;61;1113;-87
2023/11/06 17:27:53;43986.00;0.15;76.78;0.00;0.00;0.62;;;;;12.70;1.00;;;;;;2276573;61;1195;-86
2023/11/06 17:30:20;6296.00;0.02;11.53;0.00;0.00;0.62;;;;;12.70;1.00;;;;;;2276512;61;1130;-87
2023/11/06 17:32:47;50045.00;0.17;87.26;0.00;0.00;0.62;;;;;12.70;1.00;;;;;;2276605;61;1662;-88
2023/11/06 17:35:14;24054.00;0.08;42.29;0.00;0.00;0.62;;;;;12.90;1.00;;;;;;2276621;61;2012;-85
2023/11/06 17:37:41;131218.00;0.44;227.43;0.00;0.00;0.62;;;;;12.90;1.00;;;;;;2276693;61;963;-87
2023/11/06 17:40:11;76714.00;0.26;133.36;0.00;0.00;0.62;;;;;12.70;1.00;;;;;;2276505;61;1714;-86
2023/11/06 17:42:39;23842.00;0.08;41.92;0.00;0.00;0.62;;;;;12.40;1.00;;;;;;2276547;61;1280;-87
2023/11/06 17:45:09;19342.00;0.06;34.13;0.00;0.00;0.62;;;;;12.50;1.00;;;;;;2276519;61;1576;-87
2023/11/06 17:47:36;0.00;0.00;0.62;0.00;0.00;0.62;;;;;12.60;1.00;;;;;;2276506;61;1913;-85
2023/11/06 17:50:03;200809.00;0.67;347.32;0.00;0.00;0.62;;;;;12.50;1.00;;;;;;2276455;61;1469;-87
2023/11/06 17:52:30;137058.00;0.46;237.50;0.00;0.00;0.62;;;;;12.20;1.00;;;;;;2276549;61;1264;-87
2023/11/06 17:54:58;130448.00;0.43;226.10;0.00;0.00;0.62;;;;;12.20;1.00;;;;;;2276503;61;933;-87
2023/11/06 17:57:30;96217.00;0.32;167.04;0.00;0.00;0.62;;;;;12.20;1.00;;;;;;2276346;61;1923;-87
2023/11/06 17:59:57;153561.00;0.51;265.94;0.00;0.00;0.62;;;;;12.20;1.00;;;;;;2276230;61;1264;-86
2023/11/06 18:02:25;237208.00;0.79;409.95;0.00;0.00;0.62;;;;;12.10;1.00;;;;;;2276565;61;1149;-85
2023/11/06 18:04:55;73886.00;0.25;128.47;7745.00;0.03;14.04;;;;;12.40;1.00;;;;;;2276469;61;1967;-86
2023/11/06 18:07:22;231101.00;0.77;399.44;0.00;0.00;0.62;;;;;12.50;1.00;;;;;;2276463;61;2049;-87
2023/11/06 18:09:49;102365.00;0.34;177.65;0.00;0.00;0.62;;;;;12.30;1.00;;;;;;2276411;61;1562;-85
2023/11/06 18:12:16;221872.00;0.74;383.56;25326.00;0.08;44.49;;;;;12.50;1.00;;;;;;2276552;61;1550;-86
2023/11/06 18:14:43;310685.00;1.04;536.29;0.00;0.00;0.62;;;;;12.80;1.00;;;;;;2276452;61;1666;-87
2023/11/06 18:17:10;1155575.00;3.85;2010.10;126614.00;0.42;219.49;;;;;12.90;1.00;;;;;;2276449;61;1911;-87
2023/11/06 18:19:38;1221931.00;4.07;2129.92;169121.00;0.56;292.75;;;;;13.00;1.00;;;;;;2276518;61;936;-87
2023/11/06 18:22:06;1658498.00;5.53;2945.07;120338.00;0.40;208.67;;;;;12.90;1.00;;;;;;2276277;61;902;-86
2023/11/06 18:24:32;1072418.00;3.57;1861.17;113046.00;0.38;196.09;;;;;12.60;1.00;;;;;;2276311;61;1599;-86
2023/11/06 18:27:01;408975.00;1.36;705.23;85720.00;0.29;148.92;;;;;12.70;1.00;;;;;;2276446;61;1103;-86
2023/11/06 18:29:28;250269.00;0.83;432.41;82037.00;0.27;142.56;;;;;12.60;1.00;;;;;;2276502;61;1031;-87
2023/11/06 18:31:55;321067.00;1.07;554.13;43898.00;0.15;76.63;;;;;12.70;1.00;;;;;;2276554;61;1030;-86
2023/11/06 18:34:25;32114.00;0.11;56.24;0.00;0.00;0.62;;;;;12.90;1.00;;;;;;2276423;61;1269;-87
2023/11/06 18:36:54;302198.00;1.01;521.70;84191.00;0.28;146.28;;;;;12.80;1.00;;;;;;2276445;61;1914;-85
2023/11/06 18:39:21;166077.00;0.55;287.51;0.00;0.00;0.62;;;;;12.90;1.00;;;;;;2276399;61;1546;-87
2023/11/06 18:41:48;264599.00;0.88;457.06;0.00;0.00;0.62;;;;;12.90;1.00;;;;;;2276431;61;983;-86
2023/11/06 18:44:15;262647.00;0.88;453.70;0.00;0.00;0.62;;;;;13.10;1.00;;;;;;2276309;61;1548;-86
2023/11/06 18:46:41;16458.00;0.05;29.14;0.00;0.00;0.62;;;;;13.00;1.00;;;;;;2276327;61;1106;-87
2023/11/06 18:49:08;241468.00;0.80;417.28;0.00;0.00;0.62;;;;;12.80;1.00;;;;;;2276426;61;1742;-87
2023/11/06 18:51:35;38082.00;0.13;66.57;0.00;0.00;0.62;;;;;12.50;1.00;;;;;;2276447;61;948;-87
2023/11/06 18:54:04;268680.00;0.90;464.07;0.00;0.00;0.62;;;;;12.30;1.00;;;;;;2276283;61;1393;-89
2023/11/06 18:56:31;66671.00;0.22;116.01;0.00;0.00;0.62;;;;;12.40;1.00;;;;;;2276362;61;2018;-85
2023/11/06 18:58:58;187491.00;0.62;324.39;0.00;0.00;0.62;;;;;12.60;1.00;;;;;;2276334;61;1499;-87
2023/11/06 19:01:27;226648.00;0.76;391.78;0.00;0.00;0.62;;;;;12.60;1.00;;;;;;2276439;61;1091;-87
2023/11/06 19:03:54;3690.00;0.01;7.02;0.00;0.00;0.62;;;;;12.70;1.00;;;;;;2276302;61;1384;-85
2023/11/06 19:06:21;80348.00;0.27;139.64;0.00;0.00;0.62;;;;;12.80;1.00;;;;;;2276371;61;1134;-87
2023/11/06 19:08:48;73480.00;0.24;127.77;0.00;0.00;0.62;;;;;13.00;1.00;;;;;;2276445;61;998;-87
2023/11/06 19:11:16;146401.00;0.49;253.60;6352.00;0.02;11.63;;;;;13.10;1.00;;;;;;2276371;61;1636;-87
2023/11/06 19:13:43;159404.00;0.53;276.01;0.00;0.00;0.62;;;;;13.10;1.00;;;;;;2276362;61;1403;-87
2023/11/06 19:16:10;239147.00;0.80;413.28;0.00;0.00;0.62;;;;;13.50;1.00;;;;;;2276262;61;1914;-85
2023/11/06 19:18:39;171251.00;0.57;296.42;0.00;0.00;0.62;;;;;13.40;1.00;;;;;;2276309;61;1226;-88
2023/11/06 19:21:07;99902.00;0.33;173.40;0.00;0.00;0.62;;;;;13.40;1.00;;;;;;2276330;61;910;-87
2023/11/06 19:23:33;176223.00;0.59;304.98;0.00;0.00;0.62;;;;;13.60;1.00;;;;;;2276297;61;1373;-88
2023/11/06 19:26:00;1073646.00;3.58;1863.36;66911.00;0.22;116.42;;;;;13.80;1.00;;;;;;2276125;61;1551;-88
2023/11/06 19:28:29;1096185.00;3.65;1903.60;110196.00;0.37;191.17;;;;;14.00;1.00;;;;;;2276180;61;2754;-89
2023/11/06 19:30:56;1055886.00;3.52;1831.71;59544.00;0.20;103.69;;;;;14.10;1.00;;;;;;2276324;61;1135;-86
2023/11/06 19:33:22;1206201.00;4.02;2101.44;166006.00;0.55;287.39;;;;;14.10;1.00;;;;;;2276175;61;1395;-87
2023/11/06 19:35:49;1786548.00;5.96;3194.85;240985.00;0.80;416.45;;;;;14.20;1.00;;;;;;2276278;61;1997;-88
2023/11/06 19:38:16;901123.00;3.00;1558.09;111776.00;0.37;193.89;;;;;14.10;1.00;;;;;;2276328;61;1127;-89
2023/11/06 19:40:43;910422.00;3.03;1574.43;78326.00;0.26;136.15;;;;;14.50;1.00;;;;;;2276339;61;985;-88
2023/11/06 19:43:10;1332839.00;4.44;2332.33;158303.00;0.53;274.12;;;;;14.70;1.00;;;;;;2276184;61;1446;-88
2023/11/06 19:45:40;1523964.00;5.08;2688.29;199679.00;0.67;345.37;;;;;14.80;1.00;;;;;;2276241;61;1447;-88
2023/11/06 19:48:07;1191502.00;3.97;2074.86;172959.00;0.58;299.36;;;;;15.00;1.00;;;;;;2276231;61;1529;-89
2023/11/06 19:50:35;497542.00;1.66;857.59;88388.00;0.29;153.52;;;;;14.90;1.00;;;;;;2276199;61;1009;-87
2023/11/06 19:53:03;285522.00;0.95;493.03;85661.00;0.29;148.81;;;;;14.80;1.00;;;;;;2276271;61;1405;-89
2023/11/06 19:55:32;218394.00;0.73;377.58;79385.00;0.26;137.97;;;;;15.10;1.00;;;;;;2276222;61;1610;-88
2023/11/06 19:57:59;329737.00;1.10;569.03;116609.00;0.39;202.23;;;;;15.20;1.00;;;;;;2276144;61;2009;-87
2023/11/06 20:00:26;364496.00;1.21;628.78;84146.00;0.28;146.20;;;;;15.30;1.00;;;;;;2276184;61;981;-88
2023/11/06 20:02:54;108814.00;0.36;188.78;0.00;0.00;0.62;;;;;15.60;1.00;;;;;;2276125;61;1725;-87
2023/11/06 20:05:22;182281.00;0.61;315.42;0.00;0.00;0.62;;;;;15.70;1.00;;;;;;2276151;61;1570;-88
2023/11/06 20:07:49;33448.00;0.11;58.55;0.00;0.00;0.62;;;;;15.20;1.00;;;;;;2276111;61;1593;-88
2023/11/06 20:10:17;99273.00;0.33;172.32;0.00;0.00;0.62;;;;;15.10;1.00;;;;;;2276077;61;916;-88
2023/11/06 20:12:44;261964.00;0.87;452.53;0.00;0.00;0.62;;;;;14.90;1.00;;;;;;2276157;61;1415;-87
2023/11/06 20:15:11;184441.00;0.61;319.14;0.00;0.00;0.62;;;;;14.80;1.00;;;;;;2276121;61;1518;-89
2023/11/06 20:17:38;307423.00;1.02;530.68;48944.00;0.16;85.36;;;;;14.20;1.00;;;;;;2276175;61;2002;-87
2023/11/06 20:20:08;72474.00;0.24;126.04;0.00;0.00;0.62;;;;;13.90;1.00;;;;;;2276255;61;1114;-87
2023/11/06 20:22:35;66147.00;0.22;115.10;0.00;0.00;0.62;;;;;13.70;1.00;;;;;;2276130;61;1338;-88
2023/11/06 20:25:03;72689.00;0.24;126.41;0.00;0.00;0.62;;;;;13.50;1.00;;;;;;2276068;61;1616;-87
2023/11/06 20:27:30;114900.00;0.38;199.28;0.00;0.00;0.62;;;;;13.50;1.00;;;;;;2276184;61;1656;-87
2023/11/06 20:29:57;177016.00;0.59;306.35;0.00;0.00;0.62;;;;;13.40;1.00;;;;;;2276140;61;1567;-87
2023/11/06 20:32:25;133619.00;0.45;231.57;0.00;0.00;0.62;;;;;13.10;1.00;;;;;;2275802;61;948;-85
2023/11/06 20:34:53;235691.00;0.79;407.34;0.00;0.00;0.62;;;;;12.80;1.00;;;;;;2275905;61;1410;-87
2023/11/06 20:37:22;89000.00;0.30;154.58;0.00;0.00;0.62;;;;;13.00;1.00;;;;;;2275619;61;2008;-88
2023/11/06 20:39:49;243949.00;0.81;421.54;14467.00;0.05;25.69;;;;;12.70;1.00;;;;;;2276156;61;1575;-87
2023/11/06 20:42:17;205043.00;0.68;354.60;0.00;0.00;0.62;;;;;12.50;1.00;;;;;;2276451;61;979;-87
2023/11/06 20:44:44;77060.00;0.26;133.96;0.00;0.00;0.62;;;;;12.70;1.00;;;;;;2276353;61;1470;-86
2023/11/06 20:47:11;112129.00;0.37;194.50;0.00;0.00;0.62;;;;;13.00;1.00;;;;;;2276569;61;1728;-88
2023/11/06 20:49:38;45922.00;0.15;80.13;0.00;0.00;0.62;;;;;13.10;1.00;;;;;;2276592;61;1057;-87
2023/11/06 20:52:05;49548.00;0.17;86.40;0.00;0.00;0.62;;;;;13.30;1.00;;;;;;2276510;61;926;-87
2023/11/06 20:54:33;155896.00;0.52;269.97;0.00;0.00;0.62;;;;;13.10;1.00;;;;;;2276517;61;1421;-87
2023/11/06 20:57:00;169897.00;0.57;294.09;0.00;0.00;0.62;;;;;13.00;1.00;;;;;;2276397;61;1957;-86
2023/11/06 20:59:38;141713.00;0.47;245.52;0.00;0.00;0.62;;;;;12.70;1.00;;;;;;2285704;56;3758;-88
2023/11/06 21:02:09;170141.00;0.57;294.51;0.00;0.00;0.62;;;;;12.50;1.00;;;;;;2276377;61;1831;-87
2023/11/06 21:04:36;55861.00;0.19;97.32;0.00;0.00;0.62;;;;;12.40;1.00;;;;;;2276174;60;1299;-88
2023/11/06 21:07:04;223445.00;0.74;386.27;0.00;0.00;0.62;;;;;12.30;1.00;;;;;;2276171;60;2401;-90
2023/11/06 21:09:33;295651.00;0.99;510.44;0.00;0.00;0.62;;;;;12.50;1.00;;;;;;2276246;60;1633;-87
2023/11/06 21:55:28;621688.00;2.07;1071.68;0.00;0.00;0.62;;;;;13.80;1.00;;;;;;2312757;39;3636;-89
2023/11/06 22:00:27;505365.00;1.68;871.06;0.00;0.00;0.62;;;;;14.50;1.00;;;;;;2278151;61;1414;-88
2023/11/06 22:08:09;927957.00;3.09;1605.28;0.00;0.00;0.62;;;;;15.20;1.00;;;;;;1502248;56;3594;-89
2023/11/06 22:15:42;660640.00;2.20;1139.05;0.00;0.00;0.62;;;;;15.20;1.00;;;;;;2334723;40;3569;-89
2023/11/06 22:18:10;253859.00;0.85;438.59;2248.00;0.01;4.52;;;;;15.30;1.00;;;;;;2296203;55;3772;-90
2023/11/06 22:20:38;295991.00;0.99;511.03;0.00;0.00;0.62;;;;;15.50;1.00;;;;;;2312303;40;3566;-90
2023/11/06 22:33:19;238578.00;0.80;412.31;0.00;0.00;0.62;;;;;16.00;1.00;;;;;;2309168;55;3682;-91
2023/11/06 22:35:46;139899.00;0.47;242.40;0.00;0.00;0.62;;;;;16.00;1.00;;;;;;2465369;39;3813;-89
2023/11/06 22:43:25;667514.00;2.23;1150.95;0.00;0.00;0.62;;;;;16.10;1.00;;;;;;2277392;60;1410;-89
2023/11/06 22:55:59;731720.00;2.44;1262.29;0.00;0.00;0.62;;;;;16.10;1.00;;;;;;2341428;39;3643;-87
2023/11/06 23:06:17;678524.00;2.26;1170.02;0.00;0.00;0.62;;;;;14.90;1.00;;;;;;2368920;39;3624;-89
2023/11/06 23:08:48;279028.00;0.93;481.87;0.00;0.00;0.62;;;;;15.00;1.00;;;;;;2279848;60;1694;-90
2023/11/06 23:11:16;465058.00;1.55;801.69;0.00;0.00;0.62;;;;;15.00;1.00;;;;;;2284857;40;3558;-89
2023/11/06 23:13:53;321577.00;1.07;555.01;0.00;0.00;0.62;;;;;14.20;1.00;;;;;;2279715;55;3839;-92
2023/11/06 23:16:20;174868.00;0.58;302.65;0.00;0.00;0.62;;;;;13.90;1.00;;;;;;2279837;60;1132;-88
2023/11/06 23:21:17;720161.00;2.40;1242.22;0.00;0.00;0.62;;;;;14.00;1.00;;;;;;2277578;60;1238;-88
2023/11/06 23:23:45;239435.00;0.80;413.78;0.00;0.00;0.62;;;;;13.20;1.00;;;;;;2275822;60;1635;-88
2023/11/06 23:26:13;241207.00;0.80;416.83;0.00;0.00;0.62;;;;;12.60;1.00;;;;;;2275989;60;1020;-88
2023/11/06 23:38:44;327535.00;1.09;565.25;0.00;0.00;0.62;;;;;14.00;1.00;;;;;;2277778;60;1906;-89
2023/11/06 23:51:21;585507.00;1.95;1009.20;0.00;0.00;0.62;;;;;15.20;1.00;;;;;;2277669;60;1213;-88
2023/11/06 23:53:52;192911.00;0.64;333.72;0.00;0.00;0.62;;;;;15.20;1.00;;;;;;2275560;60;1378;-88
